Startpagina
METAR-TAF:

METAR-TAF

Vliegvelden :

Luchthaven Larnaca

Larnaca, Cyprus

breedte: 34-53N, lengte: 033-38E, hoogte: 2 m

Actueel weer

Dit bericht is 13 minuten geleden gemaakt, om 16:00 UTC
Wind 5 kt uit het noordnoordwesten
Temperatuur 18°C
Vochtigheid 42%
Druk 1021 hPa
Zicht 10 km of meer
geen wolken onder 1500 m en geen cumulonimbus

METAR: LCLK 181600Z 33005KT CAVOK 18/05 Q1021 NOSIG

Tijdstip: 18:13 (16:13 UTC)

Verwachting

Dit bericht is 4 uur en het 43 minuten geleden gemaakt, om 11:30 UTC
Verwachting geldig van 18 om 12 UTC tot 19 om 12 UTC
Wind 15 kt uit het noordoosten
Zicht 10 km of meer
geen wolken onder 1500 m en geen cumulonimbus
Wijzigt naar
van 18 om 19 UTC tot 18 om 22 UTC
Wind 8 kt uit het noordnoordwesten
Wijzigt naar
van 19 om 09 UTC tot 19 om 12 UTC
Wind 10 kt uit het oosten

TAF: LCLK 181130Z 1812/1912 05015KT CAVOK BECMG 1819/1822 34008KT BECMG 1909/1912 10010KT

Waarnemingen en weersverwachtingen van meer dan 4000 vliegvelden (METAR en TAF).

De beschikbare stations zijn de gele en rode punten op de kaart.

Ga met uw muis naar het station om de naam te zien.

Klik dan om waarnemingen en weersverwachtingen te zien.

kaart wijzigen: klik op de groene knoppen met een zwart kruis om in te zoomen, op de groene knop met een streepje om uit te zoomen of op de groene pijlen voor aangrenzende kaarten.


METAR-TAF: